Time;durP1;ratioP1;P1;durP2;ratioP2;P2;SDS_P1;SDS_P2;PMS_P1;PMS_P2;Temp;Humidity;BMP_temperature;BMP_pressure;BME280_temperature;BME280_humidity;BME280_pressure;Samples;Min_cycle;Max_cycle;Signal;HPM_P1;HPM_P2
2022/11/18 00:01:10;;;;;;;3.88;2.53;;;11.20;99.90;;;;;;5092313;28;20036;-79
2022/11/18 00:03:36;;;;;;;5.13;2.72;;;11.10;99.90;;;;;;5092706;28;20021;-79
2022/11/18 00:06:03;;;;;;;6.32;1.80;;;11.10;99.90;;;;;;5092624;28;20028;-79
2022/11/18 00:08:29;;;;;;;6.75;2.58;;;11.10;99.90;;;;;;5092238;28;20020;-79
2022/11/18 00:10:55;;;;;;;4.38;2.30;;;11.00;99.90;;;;;;5092175;28;20111;-78
2022/11/18 00:16:07;;;;;;;6.07;1.65;;;11.00;99.90;;;;;;5072576;28;20054;-79
2022/11/18 00:18:33;;;;;;;5.55;1.65;;;11.00;99.90;;;;;;5071966;28;20029;-79
2022/11/18 00:21:07;;;;;;;3.85;1.63;;;11.00;99.90;;;;;;5072280;28;20024;-78
2022/11/18 00:23:33;;;;;;;5.50;1.77;;;11.00;99.90;;;;;;5071794;28;20020;-78
2022/11/18 00:26:07;;;;;;;9.82;2.00;;;11.00;99.90;;;;;;5071605;28;20115;-78
2022/11/18 00:28:34;;;;;;;5.97;2.15;;;10.90;99.90;;;;;;5071784;28;20095;-78
2022/11/18 00:31:05;;;;;;;8.32;1.80;;;10.90;99.90;;;;;;5072109;28;20086;-78
2022/11/18 00:33:31;;;;;;;4.45;1.58;;;10.90;99.90;;;;;;5072235;28;20028;-78
2022/11/18 00:35:57;;;;;;;8.57;1.73;;;10.90;99.90;;;;;;5072054;28;20506;-78
2022/11/18 00:38:24;;;;;;;5.05;1.38;;;10.80;99.90;;;;;;5087066;28;20521;-78
2022/11/18 00:41:01;;;;;;;4.18;1.48;;;10.80;99.90;;;;;;5071999;28;20016;-78
2022/11/18 00:43:27;;;;;;;8.38;2.05;;;10.70;99.90;;;;;;5074752;28;20107;-78
2022/11/18 00:45:53;;;;;;;6.03;1.60;;;10.70;99.90;;;;;;5075980;28;20100;-78
2022/11/18 00:48:20;;;;;;;6.72;1.80;;;10.80;99.90;;;;;;5074541;28;20486;-78
2022/11/18 00:50:49;;;;;;;4.35;1.33;;;10.80;99.90;;;;;;5091112;28;20595;-78
2022/11/18 00:53:16;;;;;;;5.55;1.50;;;10.90;99.90;;;;;;5095679;28;20061;-78
2022/11/18 00:55:42;;;;;;;8.20;2.05;;;10.80;99.90;;;;;;5094518;28;20073;-78
2022/11/18 00:58:08;;;;;;;5.40;1.85;;;10.90;99.90;;;;;;5096277;28;20056;-78
2022/11/18 01:00:34;;;;;;;7.00;1.80;;;10.90;99.90;;;;;;5094635;28;20020;-78
2022/11/18 01:03:01;;;;;;;4.20;1.60;;;10.80;99.90;;;;;;5095521;28;20497;-78
2022/11/18 01:05:27;;;;;;;5.78;1.83;;;10.80;99.90;;;;;;5096154;28;20016;-78
2022/11/18 01:07:52;;;;;;;4.65;1.40;;;10.80;99.90;;;;;;5095567;28;20024;-78
2022/11/18 01:10:18;;;;;;;5.00;1.10;;;10.80;99.90;;;;;;5094431;28;20401;-78
2022/11/18 01:15:28;;;;;;;8.20;1.85;;;10.80;99.90;;;;;;5095884;28;20056;-78
2022/11/18 01:17:53;;;;;;;4.85;1.20;;;10.80;99.90;;;;;;5095435;28;20024;-78
2022/11/18 01:20:19;;;;;;;4.45;1.27;;;10.80;99.90;;;;;;5094073;28;20020;-78
2022/11/18 01:22:45;;;;;;;5.55;1.50;;;10.70;99.90;;;;;;5095053;28;20028;-78
2022/11/18 01:25:10;;;;;;;5.78;1.30;;;10.70;99.90;;;;;;5095198;28;20041;-78
2022/11/18 01:27:36;;;;;;;2.25;0.85;;;10.70;99.90;;;;;;5077602;28;20482;-78
2022/11/18 01:30:02;;;;;;;4.63;1.60;;;10.60;99.90;;;;;;5074847;28;20553;-78
2022/11/18 01:32:27;;;;;;;5.97;1.40;;;10.60;99.90;;;;;;5074955;28;20157;-78
2022/11/18 01:34:53;;;;;;;11.20;1.70;;;10.60;99.90;;;;;;5073694;28;20547;-78
2022/11/18 01:37:19;;;;;;;3.72;1.15;;;10.60;99.90;;;;;;5074504;28;20093;-78
2022/11/18 01:39:45;;;;;;;2.10;1.20;;;10.60;99.90;;;;;;5074896;28;20092;-78
2022/11/18 01:42:14;;;;;;;3.72;1.15;;;10.50;99.90;;;;;;5096566;28;20062;-78
2022/11/18 01:44:57;;;;;;;3.58;1.45;;;10.50;99.90;;;;;;5115534;28;20110;-78
2022/11/18 01:47:26;;;;;;;5.07;1.17;;;10.50;99.90;;;;;;5114114;28;20043;-78
2022/11/18 01:49:52;;;;;;;3.13;0.80;;;10.40;99.90;;;;;;5107523;27;20103;-78
2022/11/18 01:52:18;;;;;;;2.40;0.68;;;10.40;99.90;;;;;;5094216;28;20566;-78
2022/11/18 01:54:51;;;;;;;4.38;1.38;;;10.40;99.90;;;;;;5094700;28;20020;-78
2022/11/18 01:57:19;;;;;;;5.20;0.90;;;10.40;99.90;;;;;;5094604;28;20020;-78
2022/11/18 01:59:48;;;;;;;4.18;1.20;;;10.30;99.90;;;;;;5094752;28;20024;-78
2022/11/18 02:02:14;;;;;;;3.58;1.30;;;10.40;99.90;;;;;;5094758;28;20094;-78
2022/11/18 02:04:46;;;;;;;3.53;0.90;;;10.40;99.90;;;;;;5094715;28;20016;-78
2022/11/18 02:07:13;;;;;;;3.92;0.85;;;10.30;99.90;;;;;;5094463;28;20025;-78
2022/11/18 02:09:39;;;;;;;4.75;1.10;;;10.30;99.90;;;;;;5094615;28;20019;-78
2022/11/18 02:12:06;;;;;;;5.35;1.02;;;10.30;99.90;;;;;;5092542;28;20034;-78
2022/11/18 02:14:36;;;;;;;3.03;1.00;;;10.30;99.90;;;;;;5094213;28;20498;-78
2022/11/18 02:17:14;;;;;;;5.63;1.45;;;10.30;99.90;;;;;;5094524;28;20027;-78
2022/11/18 02:19:45;;;;;;;5.45;0.93;;;10.30;99.90;;;;;;5094008;28;20509;-78
2022/11/18 02:22:30;;;;;;;;;;;10.40;99.90;;;;;;5094530;28;20102;-78
2022/11/18 02:25:01;;;;;;;2.88;1.02;;;10.40;99.90;;;;;;5092596;28;20440;-78
2022/11/18 02:27:36;;;;;;;1.20;0.80;;;10.50;99.90;;;;;;5077856;28;20031;-78
2022/11/18 02:30:07;;;;;;;6.25;1.48;;;10.50;99.90;;;;;;5073759;28;20032;-78
2022/11/18 02:32:51;;;;;;;3.00;0.70;;;10.50;99.90;;;;;;5073858;28;20024;-78
2022/11/18 02:35:38;;;;;;;1.70;0.70;;;10.50;99.90;;;;;;5073717;28;20020;-80
2022/11/18 02:38:10;;;;;;;3.63;1.10;;;10.60;99.90;;;;;;5073851;28;20025;-82
2022/11/18 02:40:42;;;;;;;1.60;0.50;;;10.60;99.90;;;;;;5073891;28;20034;-82
2022/11/18 02:43:22;;;;;;;2.33;1.30;;;10.60;99.90;;;;;;5111653;28;20023;-82
2022/11/18 02:45:52;;;;;;;5.82;1.13;;;10.60;99.90;;;;;;5114085;28;20477;-82
2022/11/18 02:48:21;;;;;;;2.40;0.85;;;10.40;99.90;;;;;;5113747;28;20047;-81
2022/11/18 02:50:49;;;;;;;8.52;1.75;;;10.40;99.90;;;;;;5098922;28;20052;-80
2022/11/18 02:53:18;;;;;;;5.18;1.10;;;10.30;99.90;;;;;;5092258;28;20032;-80
2022/11/18 02:55:45;;;;;;;3.88;1.13;;;10.30;99.90;;;;;;5093735;28;20020;-80
2022/11/18 02:58:13;;;;;;;3.75;1.08;;;10.30;99.90;;;;;;5093732;28;20024;-79
2022/11/18 03:00:39;;;;;;;5.55;1.70;;;10.20;99.90;;;;;;5092100;28;20024;-79
2022/11/18 03:03:43;;;;;;;5.25;1.52;;;10.20;99.90;;;;;;5093231;28;20516;-79
2022/11/18 03:06:18;;;;;;;2.95;1.02;;;10.20;99.90;;;;;;5030225;28;20569;-79
2022/11/18 03:09:13;;;;;;;3.38;1.30;;;10.10;99.90;;;;;;5030758;28;20517;-79
2022/11/18 03:12:07;;;;;;;4.25;0.90;;;10.00;99.90;;;;;;5017389;28;20075;-79
2022/11/18 03:14:43;;;;;;;3.67;0.95;;;10.00;99.90;;;;;;5014009;28;20064;-79
2022/11/18 03:17:27;;;;;;;3.38;1.25;;;10.00;99.90;;;;;;5030287;28;20033;-79
2022/11/18 03:19:52;;;;;;;2.83;0.93;;;10.00;99.90;;;;;;5014164;28;20036;-79
2022/11/18 03:22:24;;;;;;;2.65;0.75;;;10.00;99.90;;;;;;5030684;28;20022;-79
2022/11/18 03:25:15;;;;;;;2.90;1.60;;;9.90;99.90;;;;;;5030566;28;20128;-79
2022/11/18 03:27:56;;;;;;;5.35;1.67;;;9.90;99.90;;;;;;5030003;28;20032;-79
2022/11/18 03:30:23;;;;;;;;;;;9.90;99.90;;;;;;5030657;28;20044;-79
2022/11/18 03:32:55;;;;;;;4.75;1.00;;;9.80;99.90;;;;;;5013605;28;19908;-79
2022/11/18 03:35:24;;;;;;;3.88;0.90;;;9.70;99.90;;;;;;5013923;28;20044;-79
2022/11/18 03:37:55;;;;;;;2.97;1.08;;;9.80;99.90;;;;;;5085807;28;20169;-79
2022/11/18 03:40:27;;;;;;;4.38;1.30;;;9.80;99.90;;;;;;5092804;28;20032;-79
2022/11/18 03:43:01;;;;;;;2.20;0.90;;;9.70;99.90;;;;;;5109449;28;20473;-79
2022/11/18 03:45:49;;;;;;;2.03;1.13;;;9.80;99.90;;;;;;5113333;27;20532;-79
2022/11/18 03:48:24;;;;;;;4.07;1.10;;;9.70;99.90;;;;;;5112931;28;20332;-79
2022/11/18 03:50:52;;;;;;;3.08;0.85;;;9.70;99.90;;;;;;5097155;28;20042;-79
2022/11/18 03:53:19;;;;;;;2.17;0.95;;;9.70;99.90;;;;;;5092243;28;20039;-79
2022/11/18 03:55:51;;;;;;;1.92;0.98;;;9.70;99.90;;;;;;5092534;28;20020;-79
2022/11/18 03:58:16;;;;;;;;;;;9.80;99.90;;;;;;5091448;28;20028;-79
2022/11/18 04:00:47;;;;;;;2.10;1.05;;;9.80;99.90;;;;;;5090838;28;19915;-79
2022/11/18 04:03:13;;;;;;;3.22;0.80;;;9.80;99.90;;;;;;5091037;28;20073;-79
2022/11/18 04:05:41;;;;;;;3.05;0.75;;;9.70;99.90;;;;;;5091114;28;20016;-79
2022/11/18 04:08:19;;;;;;;6.10;1.20;;;9.70;99.90;;;;;;5092565;28;20028;-79
2022/11/18 04:10:51;;;;;;;2.15;1.10;;;9.70;99.90;;;;;;5092566;28;20024;-79
2022/11/18 04:13:33;;;;;;;3.10;0.98;;;9.60;99.90;;;;;;5092133;28;20020;-79
2022/11/18 04:15:59;;;;;;;3.65;1.10;;;9.60;99.90;;;;;;5071857;28;20044;-79
2022/11/18 04:18:25;;;;;;;1.65;0.70;;;9.60;99.90;;;;;;5070577;28;20573;-79
2022/11/18 04:20:50;;;;;;;2.38;1.00;;;9.60;99.90;;;;;;5072281;28;20099;-79
2022/11/18 04:23:16;;;;;;;1.42;0.70;;;9.60;99.90;;;;;;5071982;28;20513;-79
2022/11/18 04:25:42;;;;;;;2.22;0.60;;;9.60;99.90;;;;;;5071818;28;20134;-79
2022/11/18 04:28:07;;;;;;;5.18;1.02;;;9.60;99.90;;;;;;5071960;28;20493;-79
2022/11/18 04:30:34;;;;;;;2.00;0.57;;;9.50;99.90;;;;;;5072049;28;20488;-79
2022/11/18 04:33:00;;;;;;;1.65;0.60;;;9.50;99.90;;;;;;5071892;28;20052;-79
2022/11/18 04:35:26;;;;;;;3.05;0.80;;;9.50;99.90;;;;;;5072179;28;20086;-79
2022/11/18 04:37:52;;;;;;;1.83;0.60;;;9.50;99.90;;;;;;5070430;28;20169;-79
2022/11/18 04:40:18;;;;;;;3.00;0.85;;;9.60;99.90;;;;;;5071956;28;20020;-81
2022/11/18 04:42:43;;;;;;;4.68;0.90;;;9.60;99.90;;;;;;5102946;28;20058;-82
2022/11/18 04:45:10;;;;;;;6.82;1.00;;;9.60;99.90;;;;;;5112483;28;20411;-82
2022/11/18 04:47:36;;;;;;;3.17;0.98;;;9.60;99.90;;;;;;5111014;28;20103;-82
2022/11/18 04:50:02;;;;;;;2.33;0.70;;;9.60;99.90;;;;;;5103269;28;20031;-81
2022/11/18 04:52:28;;;;;;;2.30;0.75;;;9.70;99.90;;;;;;5091872;28;20012;-81
2022/11/18 04:54:53;;;;;;;1.60;1.23;;;9.70;99.90;;;;;;5092184;28;20051;-81
2022/11/18 04:57:19;;;;;;;3.83;0.73;;;9.70;99.90;;;;;;5090490;28;20028;-81
2022/11/18 04:59:45;;;;;;;1.90;0.77;;;9.60;99.90;;;;;;5091707;28;20024;-81
2022/11/18 05:02:11;;;;;;;2.17;0.60;;;9.70;99.90;;;;;;5090448;28;20444;-80
2022/11/18 05:04:37;;;;;;;3.88;0.85;;;9.70;99.90;;;;;;5091935;28;20032;-80
2022/11/18 05:07:03;;;;;;;2.58;0.95;;;9.80;99.90;;;;;;5091794;28;20493;-80
2022/11/18 05:09:29;;;;;;;3.70;1.15;;;9.70;99.90;;;;;;5092079;28;20095;-80
2022/11/18 05:14:39;;;;;;;4.00;0.90;;;9.70;99.90;;;;;;5091860;28;20121;-80
2022/11/18 05:17:07;;;;;;;2.15;0.50;;;9.60;99.90;;;;;;5091670;28;20474;-79
2022/11/18 05:19:33;;;;;;;2.75;0.77;;;9.60;99.90;;;;;;5092027;28;20074;-80
2022/11/18 05:21:59;;;;;;;2.95;0.65;;;9.50;99.90;;;;;;5090133;28;20552;-80
2022/11/18 05:24:25;;;;;;;3.90;1.00;;;9.60;99.90;;;;;;5089997;28;20048;-80
2022/11/18 05:26:51;;;;;;;2.50;0.50;;;9.60;99.90;;;;;;5080424;28;20021;-80
2022/11/18 05:29:19;;;;;;;0.68;0.57;;;9.50;99.90;;;;;;5073372;28;20028;-80
2022/11/18 05:31:46;;;;;;;1.48;0.63;;;9.50;99.90;;;;;;5074901;28;20024;-79
2022/11/18 05:34:12;;;;;;;2.17;1.00;;;9.50;99.90;;;;;;5090424;28;20032;-79
2022/11/18 05:36:38;;;;;;;4.97;0.82;;;9.40;99.90;;;;;;5090505;28;20120;-79
2022/11/18 05:39:04;;;;;;;2.13;0.63;;;9.40;99.90;;;;;;5074957;28;20104;-80
2022/11/18 05:44:14;;;;;;;1.17;0.57;;;9.40;99.90;;;;;;5115515;28;20504;-79
2022/11/18 05:46:40;;;;;;;4.38;1.00;;;9.40;99.90;;;;;;5115214;28;20054;-79
2022/11/18 05:49:06;;;;;;;2.95;0.70;;;9.30;99.90;;;;;;5113930;28;20059;-79
2022/11/18 05:51:32;;;;;;;2.85;1.00;;;9.20;99.90;;;;;;5095194;28;20030;-79
2022/11/18 05:54:01;;;;;;;1.27;0.50;;;9.20;99.90;;;;;;5094695;28;20061;-79
2022/11/18 05:56:30;;;;;;;1.65;0.63;;;9.30;99.90;;;;;;5094573;28;20024;-79
2022/11/18 05:58:56;;;;;;;1.77;0.70;;;9.20;99.90;;;;;;5093321;28;20024;-79
2022/11/18 06:01:34;;;;;;;0.80;0.70;;;9.20;99.90;;;;;;5094869;28;20477;-79
2022/11/18 06:04:01;;;;;;;0.75;0.50;;;9.30;99.90;;;;;;5093044;28;20497;-79
2022/11/18 06:06:27;;;;;;;1.50;0.50;;;9.20;99.90;;;;;;5094537;28;20023;-79
2022/11/18 06:09:01;;;;;;;0.90;0.60;;;9.30;99.90;;;;;;5094795;28;20032;-79
2022/11/18 06:11:29;;;;;;;0.52;0.40;;;9.30;99.90;;;;;;5094095;28;20028;-79
2022/11/18 06:14:02;;;;;;;0.30;0.30;;;9.30;99.90;;;;;;5094462;28;20077;-79
2022/11/18 06:16:30;;;;;;;3.10;0.47;;;9.30;99.90;;;;;;5094511;28;20020;-79
2022/11/18 06:18:56;;;;;;;1.27;0.52;;;9.20;99.90;;;;;;5094432;28;20469;-79
2022/11/18 06:21:22;;;;;;;0.90;0.38;;;9.20;99.90;;;;;;5093191;28;20016;-79
2022/11/18 06:23:48;;;;;;;1.63;0.50;;;9.30;99.90;;;;;;5093760;28;20044;-79
2022/11/18 06:26:15;;;;;;;1.95;0.60;;;9.30;99.90;;;;;;5087890;28;20023;-79
2022/11/18 06:28:44;;;;;;;2.05;0.60;;;9.40;99.90;;;;;;5073348;28;20028;-79
2022/11/18 06:31:10;;;;;;;1.23;0.60;;;9.30;99.90;;;;;;5072638;28;20174;-80
2022/11/18 06:33:35;;;;;;;2.33;0.80;;;9.40;99.90;;;;;;5073561;28;20112;-80
2022/11/18 06:36:01;;;;;;;2.15;0.77;;;9.40;99.90;;;;;;5073746;28;20497;-80
2022/11/18 06:38:27;;;;;;;3.20;1.00;;;9.40;99.90;;;;;;5073920;28;20024;-80
2022/11/18 06:40:53;;;;;;;3.80;0.82;;;9.40;99.90;;;;;;5071612;28;20421;-80
2022/11/18 06:48:48;;;;;;;0.93;0.63;;;9.40;99.90;;;;;;5114672;28;20031;-80
2022/11/18 06:51:14;;;;;;;2.60;1.15;;;9.40;99.90;;;;;;5094895;28;20028;-80
2022/11/18 06:53:40;;;;;;;3.97;1.33;;;9.40;99.90;;;;;;5093928;28;20474;-80
2022/11/18 06:56:07;;;;;;;3.03;1.50;;;9.40;99.90;;;;;;5093549;28;20024;-80
2022/11/18 06:58:33;;;;;;;4.32;2.55;;;9.50;99.90;;;;;;5093355;28;20050;-80
2022/11/18 07:01:23;;;;;;;7.03;3.03;;;9.40;99.90;;;;;;5093704;28;20015;-80
2022/11/18 07:03:49;;;;;;;5.32;2.88;;;9.40;99.90;;;;;;5093549;28;20020;-79
2022/11/18 07:06:21;;;;;;;3.80;2.85;;;9.40;99.90;;;;;;5093489;28;20073;-79
2022/11/18 07:08:46;;;;;;;;;;;9.30;99.90;;;;;;5094006;28;20084;-79
2022/11/18 07:11:14;;;;;;;4.97;2.40;;;9.30;99.90;;;;;;5092698;28;19927;-79
2022/11/18 07:13:40;;;;;;;3.47;2.47;;;9.30;99.90;;;;;;5091812;28;20020;-79
2022/11/18 07:16:09;;;;;;;3.85;2.40;;;9.40;99.90;;;;;;5093528;28;20498;-80
2022/11/18 07:18:37;;;;;;;4.38;2.22;;;9.50;99.90;;;;;;5093101;28;20028;-79
2022/11/18 07:21:05;;;;;;;5.18;2.90;;;9.50;99.90;;;;;;5091791;28;20016;-79
2022/11/18 07:23:32;;;;;;;4.75;3.00;;;9.50;99.90;;;;;;5091328;28;20024;-79
2022/11/18 07:25:58;;;;;;;5.35;2.80;;;9.50;99.90;;;;;;5088154;28;20035;-79
2022/11/18 07:28:24;;;;;;;4.45;2.45;;;9.50;99.90;;;;;;5072527;28;20024;-79
2022/11/18 07:30:50;;;;;;;4.45;2.70;;;9.50;99.90;;;;;;5072959;28;20035;-79
2022/11/18 07:33:15;;;;;;;4.45;1.98;;;9.50;99.90;;;;;;5072722;28;20028;-79
2022/11/18 07:35:41;;;;;;;3.60;2.17;;;9.50;99.90;;;;;;5072626;28;20504;-79
2022/11/18 07:38:07;;;;;;;3.92;1.90;;;9.60;99.90;;;;;;5072574;28;20099;-79
2022/11/18 07:40:32;;;;;;;2.08;1.75;;;9.70;99.90;;;;;;5071207;28;20485;-79
2022/11/18 07:42:58;;;;;;;1.95;1.48;;;9.80;99.90;;;;;;5072382;28;20025;-79
2022/11/18 07:45:24;;;;;;;3.05;1.80;;;9.80;99.90;;;;;;5072690;28;20028;-79
2022/11/18 07:47:50;;;;;;;1.80;1.30;;;9.70;99.90;;;;;;5072461;28;20021;-79
2022/11/18 07:50:17;;;;;;;2.63;1.60;;;9.80;99.90;;;;;;5091321;28;20020;-79
2022/11/18 07:52:43;;;;;;;2.88;2.03;;;9.70;99.90;;;;;;5092131;28;20099;-79
2022/11/18 07:55:09;;;;;;;3.83;2.08;;;9.70;99.90;;;;;;5092449;28;20084;-79
2022/11/18 07:57:34;;;;;;;3.83;1.70;;;9.80;99.90;;;;;;5092548;28;20028;-79
2022/11/18 08:00:00;;;;;;;3.22;1.60;;;9.70;99.90;;;;;;5092361;28;20024;-79
2022/11/18 08:02:26;;;;;;;4.40;1.73;;;9.80;99.90;;;;;;5092392;28;20032;-79
2022/11/18 08:04:51;;;;;;;3.58;1.80;;;9.80;99.90;;;;;;5092571;28;20181;-79
2022/11/18 08:07:17;;;;;;;7.18;2.85;;;9.90;99.90;;;;;;5092266;28;20028;-79
2022/11/18 08:09:43;;;;;;;4.63;2.72;;;9.90;99.90;;;;;;5091099;28;20535;-79
2022/11/18 08:12:08;;;;;;;5.97;3.40;;;9.90;99.90;;;;;;5092127;28;20028;-79
2022/11/18 08:14:34;;;;;;;6.70;3.40;;;9.90;99.90;;;;;;5090832;28;20024;-79
2022/11/18 08:17:00;;;;;;;6.93;3.60;;;10.00;99.90;;;;;;5092262;28;20059;-79
2022/11/18 08:19:25;;;;;;;7.82;3.55;;;10.10;99.90;;;;;;5092592;28;20028;-79
2022/11/18 08:21:52;;;;;;;8.43;3.95;;;10.10;99.90;;;;;;5091959;28;20495;-79
2022/11/18 08:24:17;;;;;;;6.30;3.58;;;10.20;99.90;;;;;;5092111;28;20047;-79
2022/11/18 08:26:44;;;;;;;7.97;4.32;;;10.30;99.90;;;;;;5080986;28;20409;-79
2022/11/18 08:29:09;;;;;;;6.00;3.78;;;10.30;99.90;;;;;;5070379;28;20074;-79
2022/11/18 08:31:35;;;;;;;4.95;3.55;;;10.50;99.90;;;;;;5072128;28;20533;-79
2022/11/18 08:34:06;;;;;;;6.03;3.40;;;10.60;99.90;;;;;;5072065;28;20039;-79
2022/11/18 08:36:35;;;;;;;5.47;3.35;;;10.70;99.90;;;;;;5071784;28;20020;-79
2022/11/18 08:39:03;;;;;;;3.80;2.78;;;10.90;99.90;;;;;;5071671;28;20107;-79
2022/11/18 08:41:38;;;;;;;4.43;2.78;;;10.90;99.90;;;;;;5082286;28;20027;-79
2022/11/18 08:44:04;;;;;;;5.07;2.88;;;10.90;99.90;;;;;;5111109;28;20106;-78
2022/11/18 08:46:30;;;;;;;4.07;2.33;;;10.90;99.90;;;;;;5112600;28;20069;-78
2022/11/18 08:48:57;;;;;;;2.58;2.00;;;11.00;99.90;;;;;;5110997;28;20031;-78
2022/11/18 08:51:23;;;;;;;5.45;2.63;;;11.00;99.90;;;;;;5071884;28;20097;-78
2022/11/18 08:53:49;;;;;;;3.05;1.70;;;11.00;99.90;;;;;;5070212;28;20478;-78
2022/11/18 08:56:20;;;;;;;4.43;2.22;;;11.20;99.90;;;;;;5071804;28;20078;-78
2022/11/18 08:58:46;;;;;;;3.08;1.67;;;11.90;99.90;;;;;;5071738;28;20024;-78
2022/11/18 09:01:11;;;;;;;6.60;1.92;;;12.10;99.90;;;;;;5070362;28;20440;-79
2022/11/18 09:03:38;;;;;;;3.15;2.00;;;11.90;99.90;;;;;;5072999;28;20095;-78
2022/11/18 09:06:09;;;;;;;4.47;1.30;;;12.40;99.90;;;;;;5075377;28;20086;-78
2022/11/18 09:08:35;;;;;;;3.78;1.33;;;13.20;99.90;;;;;;5075306;28;20107;-79
2022/11/18 09:11:10;;;;;;;3.92;1.63;;;13.50;99.90;;;;;;5075030;28;20040;-79
2022/11/18 09:13:35;;;;;;;4.93;1.98;;;13.00;99.90;;;;;;5076414;28;20028;-79
2022/11/18 09:16:02;;;;;;;5.22;1.70;;;12.40;99.90;;;;;;5095507;28;20088;-79
2022/11/18 09:18:28;;;;;;;3.17;1.70;;;12.20;99.90;;;;;;5095704;28;20062;-79
2022/11/18 09:20:56;;;;;;;7.00;1.90;;;12.00;99.90;;;;;;5094047;28;20031;-79
2022/11/18 09:23:22;;;;;;;3.80;1.05;;;11.90;99.90;;;;;;5095466;28;20024;-79
2022/11/18 09:25:48;;;;;;;5.40;1.05;;;12.00;99.90;;;;;;5093026;28;20044;-79
2022/11/18 09:28:13;;;;;;;3.10;1.10;;;12.10;99.90;;;;;;5073843;28;20052;-79
2022/11/18 09:30:39;;;;;;;3.40;1.30;;;12.20;99.90;;;;;;5074955;28;20124;-79
2022/11/18 09:33:06;;;;;;;3.47;1.25;;;12.30;99.90;;;;;;5074933;28;20438;-79
2022/11/18 09:35:35;;;;;;;4.15;1.30;;;12.40;99.90;;;;;;5074511;28;20027;-79
2022/11/18 09:38:01;;;;;;;1.60;1.23;;;12.50;99.90;;;;;;5074954;28;20086;-78
2022/11/18 09:40:27;;;;;;;1.38;1.00;;;12.80;99.90;;;;;;5074731;28;20021;-79
2022/11/18 09:43:10;;;;;;;4.68;1.52;;;13.00;99.90;;;;;;5107031;28;20123;-79
2022/11/18 09:45:44;;;;;;;3.97;1.58;;;12.70;99.90;;;;;;5115752;28;20091;-79
2022/11/18 09:48:20;;;;;;;4.32;1.50;;;12.50;99.90;;;;;;5115670;28;20024;-79
2022/11/18 09:50:45;;;;;;;2.75;1.70;;;12.50;99.90;;;;;;5099966;28;20020;-79
2022/11/18 09:53:23;;;;;;;5.15;1.90;;;12.60;99.90;;;;;;5094902;28;20501;-79
2022/11/18 09:55:51;;;;;;;5.55;1.60;;;12.70;99.90;;;;;;5094696;28;20036;-79
2022/11/18 09:58:33;;;;;;;3.30;1.65;;;12.70;99.90;;;;;;5093374;28;20024;-79
2022/11/18 10:01:00;;;;;;;3.47;2.05;;;12.70;99.90;;;;;;5094807;28;20069;-79
2022/11/18 10:03:28;;;;;;;3.38;1.42;;;12.70;99.90;;;;;;5094761;28;20073;-79
2022/11/18 10:06:03;;;;;;;1.95;1.02;;;12.60;99.90;;;;;;5094685;28;20104;-79
2022/11/18 10:08:41;;;;;;;3.60;1.17;;;12.70;99.90;;;;;;5094495;28;20067;-79
2022/11/18 10:11:15;;;;;;;2.55;0.98;;;12.80;99.90;;;;;;5094313;28;20047;-79
2022/11/18 10:14:05;;;;;;;4.47;1.23;;;12.90;99.90;;;;;;5094531;28;20028;-79
2022/11/18 10:16:41;;;;;;;3.25;0.95;;;13.10;99.90;;;;;;5094548;28;20024;-79
2022/11/18 10:19:28;;;;;;;3.45;1.10;;;13.00;99.90;;;;;;5094179;28;20044;-79
2022/11/18 10:22:02;;;;;;;3.67;1.20;;;13.20;99.90;;;;;;5093134;28;20481;-79
2022/11/18 10:24:52;;;;;;;3.22;1.00;;;13.20;99.90;;;;;;5093952;28;20052;-79
2022/11/18 10:27:19;;;;;;;2.35;0.95;;;13.30;99.90;;;;;;5071186;28;20045;-79
2022/11/18 10:29:54;;;;;;;4.45;1.15;;;13.40;99.90;;;;;;5074129;28;20098;-79
2022/11/18 10:32:20;;;;;;;3.53;0.93;;;13.60;99.90;;;;;;5073953;28;20044;-79
2022/11/18 10:34:50;;;;;;;2.78;0.73;;;13.60;99.90;;;;;;5074087;28;20055;-79
2022/11/18 10:37:32;;;;;;;3.47;0.80;;;13.70;99.90;;;;;;5074055;28;20078;-79
2022/11/18 10:40:02;;;;;;;4.78;1.20;;;13.80;99.90;;;;;;5073605;28;20068;-79
2022/11/18 10:42:42;;;;;;;2.55;0.93;;;13.80;99.90;;;;;;5100464;28;20567;-79
2022/11/18 10:45:24;;;;;;;3.58;0.90;;;13.60;99.90;;;;;;5114394;28;20094;-79
2022/11/18 10:48:16;;;;;;;8.45;1.65;;;13.60;99.90;;;;;;5112671;28;20110;-79
2022/11/18 10:50:49;;;;;;;2.97;0.90;;;13.50;99.90;;;;;;5099306;28;20028;-79
2022/11/18 10:53:30;;;;;;;3.97;0.90;;;13.40;99.90;;;;;;5092383;28;20111;-79
2022/11/18 10:56:00;;;;;;;3.75;0.93;;;13.30;99.90;;;;;;5092051;28;20020;-79
2022/11/18 10:58:29;;;;;;;3.08;1.00;;;13.40;99.90;;;;;;5093564;28;20036;-79
2022/11/18 11:01:18;;;;;;;2.78;0.82;;;13.20;99.90;;;;;;5093596;28;20032;-79
2022/11/18 11:04:03;;;;;;;3.35;0.80;;;13.10;99.90;;;;;;5093749;28;20044;-79
2022/11/18 11:06:38;;;;;;;4.05;1.13;;;13.10;99.90;;;;;;5092957;28;20039;-79
2022/11/18 11:09:13;;;;;;;2.72;0.80;;;13.20;99.90;;;;;;5093493;28;20031;-79
2022/11/18 11:11:54;;;;;;;3.75;0.82;;;13.30;99.90;;;;;;5092835;28;20036;-79
2022/11/18 11:14:51;;;;;;;2.92;1.23;;;13.30;99.90;;;;;;5093466;28;20063;-79
2022/11/18 11:17:44;;;;;;;2.55;0.75;;;13.30;99.90;;;;;;5093188;28;20485;-79
2022/11/18 11:20:25;;;;;;;2.33;0.80;;;13.40;99.90;;;;;;5092970;28;20030;-79
2022/11/18 11:22:53;;;;;;;5.10;1.10;;;13.50;99.90;;;;;;5093316;28;20099;-79
2022/11/18 11:25:42;;;;;;;3.97;1.08;;;13.50;99.90;;;;;;5092628;28;20051;-79
2022/11/18 11:28:32;;;;;;;2.72;0.70;;;13.60;99.90;;;;;;5072378;28;20058;-79
2022/11/18 11:31:17;;;;;;;2.05;0.80;;;13.70;99.90;;;;;;5072689;28;20025;-79
2022/11/18 11:33:55;;;;;;;1.67;0.60;;;14.00;99.90;;;;;;5071438;28;20028;-79
2022/11/18 11:36:50;;;;;;;1.77;0.80;;;14.00;99.90;;;;;;5071218;28;20490;-79
2022/11/18 11:39:50;;;;;;;2.33;0.70;;;13.90;99.90;;;;;;5071231;28;20544;-79
2022/11/18 11:42:22;;;;;;;2.28;0.88;;;14.00;99.90;;;;;;5095446;28;20073;-79
2022/11/18 11:45:12;;;;;;;4.22;1.27;;;14.10;99.90;;;;;;5113322;28;20097;-79
2022/11/18 11:47:48;;;;;;;2.95;0.75;;;14.00;99.90;;;;;;5111947;28;20484;-79
2022/11/18 11:50:52;;;;;;;2.33;0.90;;;13.80;99.90;;;;;;5102332;28;20028;-79
2022/11/18 11:53:56;;;;;;;2.60;0.90;;;13.60;99.90;;;;;;5092675;28;20024;-79
2022/11/18 11:56:37;;;;;;;2.08;0.70;;;13.50;99.90;;;;;;5092525;28;20032;-79
2022/11/18 11:59:24;;;;;;;1.85;0.60;;;13.50;99.90;;;;;;5092274;28;20219;-79
2022/11/18 12:02:17;;;;;;;4.32;1.23;;;13.60;99.90;;;;;;5091109;28;20020;-79
2022/11/18 12:04:53;;;;;;;3.83;0.60;;;13.60;99.90;;;;;;5091338;28;20098;-79
2022/11/18 12:07:29;;;;;;;2.40;0.80;;;13.60;99.90;;;;;;5092615;28;20048;-79
2022/11/18 12:10:25;;;;;;;3.40;0.80;;;13.30;99.90;;;;;;5092703;28;20028;-79
2022/11/18 12:12:51;;;;;;;1.45;0.90;;;13.30;99.90;;;;;;5091904;28;20024;-79
2022/11/18 12:15:41;;;;;;;2.30;0.73;;;13.50;99.90;;;;;;5092135;28;20024;-79
2022/11/18 12:18:23;;;;;;;2.92;0.85;;;13.60;99.90;;;;;;5092449;28;20077;-79
2022/11/18 12:20:51;;;;;;;4.93;0.90;;;13.70;99.90;;;;;;5092533;28;20024;-79
2022/11/18 12:23:22;;;;;;;2.60;0.80;;;13.80;99.90;;;;;;5092627;28;20051;-79
2022/11/18 12:25:58;;;;;;;3.72;1.13;;;13.80;99.90;;;;;;5089964;28;20040;-79
2022/11/18 12:28:30;;;;;;;3.15;0.88;;;13.70;99.90;;;;;;5071545;28;20029;-79
2022/11/18 12:31:14;;;;;;;;;;;13.70;99.90;;;;;;5072556;28;20025;-79
2022/11/18 12:33:51;;;;;;;2.78;0.93;;;13.70;99.90;;;;;;5072489;28;19966;-79
2022/11/18 12:36:38;;;;;;;3.67;0.90;;;13.60;99.90;;;;;;5072164;28;20079;-79
2022/11/18 12:39:22;;;;;;;2.17;0.65;;;13.50;99.90;;;;;;5075938;28;20079;-79
2022/11/18 12:44:42;;;;;;;3.38;0.75;;;13.40;99.90;;;;;;5116745;28;20446;-79
2022/11/18 12:47:09;;;;;;;2.45;0.52;;;13.50;99.90;;;;;;5116735;28;20011;-79
2022/11/18 12:49:35;;;;;;;1.25;0.80;;;13.50;99.90;;;;;;5111384;28;20028;-79
2022/11/18 12:52:25;;;;;;;1.85;0.90;;;13.50;99.90;;;;;;5096264;28;20035;-79
2022/11/18 12:54:51;;;;;;;3.65;0.90;;;13.50;99.90;;;;;;5094501;28;20473;-79
2022/11/18 12:57:16;;;;;;;1.80;0.70;;;13.30;99.90;;;;;;5095234;28;20032;-79
2022/11/18 12:59:42;;;;;;;4.28;1.40;;;13.30;99.90;;;;;;5096120;28;20032;-79
2022/11/18 13:02:11;;;;;;;2.45;0.90;;;13.30;99.90;;;;;;5095870;28;20406;-78
2022/11/18 13:04:37;;;;;;;2.08;1.10;;;13.30;99.90;;;;;;5096074;28;20050;-79
2022/11/18 13:07:05;;;;;;;3.70;1.52;;;13.30;99.90;;;;;;5094221;28;20024;-78
2022/11/18 13:09:34;;;;;;;8.02;2.75;;;13.30;99.90;;;;;;5095984;28;20539;-79
2022/11/18 13:12:11;;;;;;;2.75;1.27;;;13.20;99.90;;;;;;5095177;28;20020;-79
2022/11/18 13:17:50;;;;;;;3.17;1.30;;;13.40;99.90;;;;;;5096093;28;20528;-78
2022/11/18 13:20:32;;;;;;;3.65;1.23;;;13.30;99.90;;;;;;5095829;28;20039;-79
2022/11/18 13:25:47;;;;;;;1.67;0.80;;;13.20;99.90;;;;;;5093521;28;20051;-79
2022/11/18 13:28:37;;;;;;;3.40;1.08;;;13.20;99.90;;;;;;5074659;28;20028;-79
2022/11/18 13:31:32;;;;;;;4.57;1.10;;;13.20;99.90;;;;;;5073652;28;20086;-79
2022/11/18 13:34:07;;;;;;;3.10;1.20;;;13.20;99.90;;;;;;5075326;28;20111;-78
2022/11/18 13:36:33;;;;;;;3.63;0.80;;;13.20;99.90;;;;;;5074863;28;20029;-78
2022/11/18 13:39:01;;;;;;;2.45;0.88;;;13.10;99.90;;;;;;5075064;28;20024;-78